sensor_id;sensor_type;location;lat;lon;timestamp;pressure;altitude;pressure_sealevel;temperature;humidity
75891;BME280;64571;47.512;19.054;2023-11-19T00:02:07;101054.25;;;3.95;75.72
75891;BME280;64571;47.512;19.054;2023-11-19T00:05:10;101074.94;;;4.09;75.85
75891;BME280;64571;47.512;19.054;2023-11-19T00:08:16;101057.47;;;4.03;75.79
75891;BME280;64571;47.512;19.054;2023-11-19T00:11:18;101072.44;;;4.07;75.97
75891;BME280;64571;47.512;19.054;2023-11-19T00:14:21;101071.59;;;4.07;76.04
75891;BME280;64571;47.512;19.054;2023-11-19T00:17:24;101068.59;;;4.09;76.20
75891;BME280;64571;47.512;19.054;2023-11-19T00:20:26;101057.59;;;4.09;76.06
75891;BME280;64571;47.512;19.054;2023-11-19T00:23:29;101051.97;;;4.03;76.18
75891;BME280;64571;47.512;19.054;2023-11-19T00:26:31;101059.28;;;3.98;76.61
75891;BME280;64571;47.512;19.054;2023-11-19T00:29:34;101070.53;;;3.96;77.34
75891;BME280;64571;47.512;19.054;2023-11-19T00:32:36;101074.19;;;3.90;77.24
75891;BME280;64571;47.512;19.054;2023-11-19T00:35:40;101076.59;;;3.87;78.29
75891;BME280;64571;47.512;19.054;2023-11-19T00:38:43;101080.75;;;3.77;79.43
75891;BME280;64571;47.512;19.054;2023-11-19T00:41:45;101079.00;;;3.83;79.08
75891;BME280;64571;47.512;19.054;2023-11-19T00:44:48;101087.31;;;3.76;79.35
75891;BME280;64571;47.512;19.054;2023-11-19T00:47:53;101067.37;;;3.69;79.54
75891;BME280;64571;47.512;19.054;2023-11-19T00:50:55;101080.16;;;3.75;79.60
75891;BME280;64571;47.512;19.054;2023-11-19T00:53:58;101065.69;;;3.68;79.43
75891;BME280;64571;47.512;19.054;2023-11-19T00:57:01;101048.81;;;3.65;79.41
75891;BME280;64571;47.512;19.054;2023-11-19T01:00:07;101054.25;;;3.83;79.07
75891;BME280;64571;47.512;19.054;2023-11-19T01:03:30;101053.87;;;3.91;78.83
75891;BME280;64571;47.512;19.054;2023-11-19T01:06:34;101054.25;;;3.95;78.80
75891;BME280;64571;47.512;19.054;2023-11-19T01:09:36;101050.06;;;4.04;78.45
75891;BME280;64571;47.512;19.054;2023-11-19T01:12:39;101063.81;;;4.04;78.16
75891;BME280;64571;47.512;19.054;2023-11-19T01:15:41;101065.47;;;4.05;78.28
75891;BME280;64571;47.512;19.054;2023-11-19T01:18:46;101073.72;;;4.05;78.27
75891;BME280;64571;47.512;19.054;2023-11-19T01:21:52;101049.59;;;3.84;78.65
75891;BME280;64571;47.512;19.054;2023-11-19T01:24:55;101061.41;;;3.96;78.57
75891;BME280;64571;47.512;19.054;2023-11-19T01:27:57;101055.06;;;3.95;78.18
75891;BME280;64571;47.512;19.054;2023-11-19T01:31:01;101055.56;;;3.92;77.75
75891;BME280;64571;47.512;19.054;2023-11-19T01:34:03;101060.34;;;3.97;77.52
75891;BME280;64571;47.512;19.054;2023-11-19T01:37:06;101063.19;;;3.90;77.58
75891;BME280;64571;47.512;19.054;2023-11-19T01:40:09;101054.97;;;3.78;77.87
75891;BME280;64571;47.512;19.054;2023-11-19T01:43:31;101049.19;;;3.68;77.95
75891;BME280;64571;47.512;19.054;2023-11-19T01:46:35;101043.44;;;3.58;78.38
75891;BME280;64571;47.512;19.054;2023-11-19T01:49:38;101044.19;;;3.65;78.67
75891;BME280;64571;47.512;19.054;2023-11-19T01:52:40;101033.28;;;3.59;78.92
75891;BME280;64571;47.512;19.054;2023-11-19T01:55:43;101042.75;;;3.74;79.10
75891;BME280;64571;47.512;19.054;2023-11-19T01:58:48;101004.00;;;3.64;79.37
75891;BME280;64571;47.512;19.054;2023-11-19T02:01:51;101003.63;;;3.49;80.83
75891;BME280;64571;47.512;19.054;2023-11-19T02:05:02;101019.78;;;3.57;81.08
75891;BME280;64571;47.512;19.054;2023-11-19T02:08:05;101014.66;;;3.61;81.21
75891;BME280;64571;47.512;19.054;2023-11-19T02:11:08;101020.72;;;3.51;81.66
75891;BME280;64571;47.512;19.054;2023-11-19T02:14:10;100985.81;;;3.40;81.88
75891;BME280;64571;47.512;19.054;2023-11-19T02:17:29;100985.69;;;3.35;82.06
75891;BME280;64571;47.512;19.054;2023-11-19T02:20:36;101003.88;;;3.59;82.12
75891;BME280;64571;47.512;19.054;2023-11-19T02:23:39;101022.78;;;3.67;82.73
75891;BME280;64571;47.512;19.054;2023-11-19T02:26:52;101008.66;;;3.64;82.50
75891;BME280;64571;47.512;19.054;2023-11-19T02:29:59;100974.00;;;3.51;82.47
75891;BME280;64571;47.512;19.054;2023-11-19T02:33:02;100993.13;;;3.58;82.33
75891;BME280;64571;47.512;19.054;2023-11-19T02:36:08;100993.97;;;3.58;82.35
75891;BME280;64571;47.512;19.054;2023-11-19T02:39:11;100996.81;;;3.40;82.41
75891;BME280;64571;47.512;19.054;2023-11-19T02:42:15;100991.31;;;3.40;82.47
75891;BME280;64571;47.512;19.054;2023-11-19T02:45:18;100995.28;;;3.55;82.43
75891;BME280;64571;47.512;19.054;2023-11-19T02:48:20;100988.09;;;3.54;82.12
75891;BME280;64571;47.512;19.054;2023-11-19T02:51:23;100974.38;;;3.43;82.27
75891;BME280;64571;47.512;19.054;2023-11-19T02:54:26;100961.81;;;3.35;82.35
75891;BME280;64571;47.512;19.054;2023-11-19T02:57:32;100971.38;;;3.44;82.66
75891;BME280;64571;47.512;19.054;2023-11-19T03:00:36;100977.34;;;3.41;82.71
75891;BME280;64571;47.512;19.054;2023-11-19T03:03:44;100974.72;;;3.35;82.93
75891;BME280;64571;47.512;19.054;2023-11-19T03:06:56;100969.44;;;3.33;82.35
75891;BME280;64571;47.512;19.054;2023-11-19T03:10:00;100959.53;;;3.20;82.47
75891;BME280;64571;47.512;19.054;2023-11-19T03:13:02;100942.66;;;3.17;82.48
75891;BME280;64571;47.512;19.054;2023-11-19T03:16:05;100967.75;;;3.32;82.69
75891;BME280;64571;47.512;19.054;2023-11-19T03:19:08;100947.12;;;3.29;82.84
75891;BME280;64571;47.512;19.054;2023-11-19T03:22:10;100946.53;;;3.39;82.50
75891;BME280;64571;47.512;19.054;2023-11-19T03:25:13;100948.44;;;3.39;82.22
75891;BME280;64571;47.512;19.054;2023-11-19T03:28:16;100951.78;;;3.41;82.04
75891;BME280;64571;47.512;19.054;2023-11-19T03:31:18;100934.09;;;3.25;82.18
75891;BME280;64571;47.512;19.054;2023-11-19T03:34:21;100930.62;;;3.29;82.41
75891;BME280;64571;47.512;19.054;2023-11-19T03:37:24;100945.19;;;3.42;82.58
75891;BME280;64571;47.512;19.054;2023-11-19T03:40:28;100937.34;;;3.34;82.73
75891;BME280;64571;47.512;19.054;2023-11-19T03:43:31;100931.63;;;3.47;82.77
75891;BME280;64571;47.512;19.054;2023-11-19T03:46:33;100925.03;;;3.48;83.08
75891;BME280;64571;47.512;19.054;2023-11-19T03:49:37;100917.63;;;3.48;83.10
75891;BME280;64571;47.512;19.054;2023-11-19T03:52:40;100912.38;;;3.47;83.03
75891;BME280;64571;47.512;19.054;2023-11-19T03:55:46;100899.38;;;3.42;83.18
75891;BME280;64571;47.512;19.054;2023-11-19T03:58:48;100885.84;;;3.41;83.24
75891;BME280;64571;47.512;19.054;2023-11-19T04:01:51;100891.22;;;3.36;83.70
75891;BME280;64571;47.512;19.054;2023-11-19T04:04:56;100883.44;;;3.33;83.79
75891;BME280;64571;47.512;19.054;2023-11-19T04:07:59;100880.72;;;3.44;83.41
75891;BME280;64571;47.512;19.054;2023-11-19T04:11:04;100872.22;;;3.46;82.69
75891;BME280;64571;47.512;19.054;2023-11-19T04:14:06;100851.19;;;3.28;82.87
75891;BME280;64571;47.512;19.054;2023-11-19T04:17:09;100869.16;;;3.42;82.84
75891;BME280;64571;47.512;19.054;2023-11-19T04:20:11;100876.91;;;3.34;83.34
75891;BME280;64571;47.512;19.054;2023-11-19T04:23:17;100878.78;;;3.21;84.60
75891;BME280;64571;47.512;19.054;2023-11-19T04:26:19;100879.25;;;3.18;84.87
75891;BME280;64571;47.512;19.054;2023-11-19T04:29:22;100863.97;;;3.11;85.03
75891;BME280;64571;47.512;19.054;2023-11-19T04:32:25;100862.31;;;3.21;84.59
75891;BME280;64571;47.512;19.054;2023-11-19T04:35:29;100866.00;;;3.27;84.36
75891;BME280;64571;47.512;19.054;2023-11-19T04:38:31;100855.41;;;3.30;84.44
75891;BME280;64571;47.512;19.054;2023-11-19T04:41:35;100859.31;;;3.23;85.15
75891;BME280;64571;47.512;19.054;2023-11-19T04:44:38;100850.37;;;3.04;85.62
75891;BME280;64571;47.512;19.054;2023-11-19T04:47:41;100882.72;;;3.14;86.11
75891;BME280;64571;47.512;19.054;2023-11-19T04:50:43;100875.78;;;2.99;86.02
75891;BME280;64571;47.512;19.054;2023-11-19T04:53:46;100880.66;;;2.86;86.61
75891;BME280;64571;47.512;19.054;2023-11-19T04:56:49;100905.72;;;3.01;86.46
75891;BME280;64571;47.512;19.054;2023-11-19T04:59:51;100915.37;;;2.92;85.31
75891;BME280;64571;47.512;19.054;2023-11-19T05:02:54;100901.06;;;3.01;85.01
75891;BME280;64571;47.512;19.054;2023-11-19T05:05:57;100886.31;;;3.02;84.54
75891;BME280;64571;47.512;19.054;2023-11-19T05:09:00;100880.94;;;3.08;83.88
75891;BME280;64571;47.512;19.054;2023-11-19T05:12:08;100883.09;;;3.17;83.32
75891;BME280;64571;47.512;19.054;2023-11-19T05:15:14;100867.91;;;3.03;82.91
75891;BME280;64571;47.512;19.054;2023-11-19T05:18:16;100880.59;;;3.16;82.23
75891;BME280;64571;47.512;19.054;2023-11-19T05:21:19;100878.31;;;3.13;81.99
75891;BME280;64571;47.512;19.054;2023-11-19T05:24:21;100883.69;;;3.08;82.34
75891;BME280;64571;47.512;19.054;2023-11-19T05:27:24;100890.63;;;3.34;81.69
75891;BME280;64571;47.512;19.054;2023-11-19T05:30:26;100883.94;;;3.41;81.43
75891;BME280;64571;47.512;19.054;2023-11-19T05:33:29;100895.50;;;3.32;81.85
75891;BME280;64571;47.512;19.054;2023-11-19T05:36:33;100879.62;;;3.22;82.47
75891;BME280;64571;47.512;19.054;2023-11-19T05:39:35;100858.34;;;3.05;82.75
75891;BME280;64571;47.512;19.054;2023-11-19T05:42:38;100860.97;;;3.00;83.18
75891;BME280;64571;47.512;19.054;2023-11-19T05:45:40;100866.09;;;2.97;83.12
75891;BME280;64571;47.512;19.054;2023-11-19T05:48:43;100890.84;;;3.09;83.32
75891;BME280;64571;47.512;19.054;2023-11-19T05:51:47;100871.16;;;3.12;83.50
75891;BME280;64571;47.512;19.054;2023-11-19T05:54:50;100885.94;;;3.22;83.31
75891;BME280;64571;47.512;19.054;2023-11-19T05:57:54;100890.97;;;3.25;82.78
75891;BME280;64571;47.512;19.054;2023-11-19T06:00:57;100863.75;;;3.12;82.72
75891;BME280;64571;47.512;19.054;2023-11-19T06:04:03;100872.69;;;3.19;82.92
75891;BME280;64571;47.512;19.054;2023-11-19T06:07:07;100886.06;;;3.27;82.88
75891;BME280;64571;47.512;19.054;2023-11-19T06:10:09;100894.94;;;3.29;82.77
75891;BME280;64571;47.512;19.054;2023-11-19T06:13:13;100863.41;;;3.20;82.32
75891;BME280;64571;47.512;19.054;2023-11-19T06:16:18;100864.59;;;3.36;82.04
75891;BME280;64571;47.512;19.054;2023-11-19T06:19:21;100845.00;;;3.33;81.13
75891;BME280;64571;47.512;19.054;2023-11-19T06:22:23;100857.53;;;3.52;81.95
75891;BME280;64571;47.512;19.054;2023-11-19T06:25:26;100863.03;;;3.52;82.48
75891;BME280;64571;47.512;19.054;2023-11-19T06:28:29;100848.56;;;3.45;83.81
75891;BME280;64571;47.512;19.054;2023-11-19T06:31:31;100836.75;;;3.44;83.60
75891;BME280;64571;47.512;19.054;2023-11-19T06:34:34;100843.19;;;3.50;82.68
75891;BME280;64571;47.512;19.054;2023-11-19T06:37:38;100842.38;;;3.49;82.46
75891;BME280;64571;47.512;19.054;2023-11-19T06:40:41;100818.50;;;3.38;82.45
75891;BME280;64571;47.512;19.054;2023-11-19T06:43:43;100833.41;;;3.54;82.50
75891;BME280;64571;47.512;19.054;2023-11-19T06:46:48;100816.56;;;3.50;82.54
75891;BME280;64571;47.512;19.054;2023-11-19T06:49:51;100832.78;;;3.64;82.74
75891;BME280;64571;47.512;19.054;2023-11-19T06:52:54;100826.44;;;3.63;83.07
75891;BME280;64571;47.512;19.054;2023-11-19T06:55:56;100826.97;;;3.37;83.72
75891;BME280;64571;47.512;19.054;2023-11-19T06:58:59;100825.78;;;3.56;83.20
75891;BME280;64571;47.512;19.054;2023-11-19T07:02:02;100813.94;;;3.44;82.86
75891;BME280;64571;47.512;19.054;2023-11-19T07:05:05;100831.22;;;3.68;82.48
75891;BME280;64571;47.512;19.054;2023-11-19T07:08:08;100818.94;;;3.70;81.72
75891;BME280;64571;47.512;19.054;2023-11-19T07:11:11;100809.91;;;3.35;82.39
75891;BME280;64571;47.512;19.054;2023-11-19T07:14:14;100825.78;;;3.56;82.43
75891;BME280;64571;47.512;19.054;2023-11-19T07:17:16;100833.87;;;3.51;82.79
75891;BME280;64571;47.512;19.054;2023-11-19T07:20:20;100831.47;;;3.54;83.00
75891;BME280;64571;47.512;19.054;2023-11-19T07:23:22;100827.19;;;3.59;83.14
75891;BME280;64571;47.512;19.054;2023-11-19T07:26:25;100834.00;;;3.56;82.86
75891;BME280;64571;47.512;19.054;2023-11-19T07:29:29;100832.19;;;3.62;83.05
75891;BME280;64571;47.512;19.054;2023-11-19T07:32:32;100832.16;;;3.73;83.14
75891;BME280;64571;47.512;19.054;2023-11-19T07:35:35;100822.50;;;3.71;82.93
75891;BME280;64571;47.512;19.054;2023-11-19T07:38:37;100818.31;;;3.80;82.65
75891;BME280;64571;47.512;19.054;2023-11-19T07:41:40;100824.47;;;3.87;82.70
75891;BME280;64571;47.512;19.054;2023-11-19T07:44:44;100835.94;;;3.96;82.49
75891;BME280;64571;47.512;19.054;2023-11-19T07:47:46;100831.41;;;3.90;81.95
75891;BME280;64571;47.512;19.054;2023-11-19T07:50:49;100844.59;;;3.88;81.96
75891;BME280;64571;47.512;19.054;2023-11-19T07:53:52;100848.16;;;3.88;81.64
75891;BME280;64571;47.512;19.054;2023-11-19T07:56:55;100844.69;;;3.81;81.74
75891;BME280;64571;47.512;19.054;2023-11-19T07:59:58;100837.91;;;3.84;82.68
75891;BME280;64571;47.512;19.054;2023-11-19T08:03:00;100829.38;;;3.97;82.81
75891;BME280;64571;47.512;19.054;2023-11-19T08:06:04;100814.78;;;3.96;82.58
75891;BME280;64571;47.512;19.054;2023-11-19T08:09:06;100817.88;;;4.00;82.58
75891;BME280;64571;47.512;19.054;2023-11-19T08:12:09;100804.75;;;3.90;82.65
75891;BME280;64571;47.512;19.054;2023-11-19T08:15:11;100796.87;;;3.94;82.38
75891;BME280;64571;47.512;19.054;2023-11-19T08:18:14;100787.44;;;3.78;82.65
75891;BME280;64571;47.512;19.054;2023-11-19T08:21:17;100780.47;;;3.59;83.52
75891;BME280;64571;47.512;19.054;2023-11-19T08:24:20;100770.47;;;3.81;83.62
75891;BME280;64571;47.512;19.054;2023-11-19T08:27:22;100759.47;;;3.93;83.39
75891;BME280;64571;47.512;19.054;2023-11-19T08:30:30;100735.19;;;3.90;83.38
75891;BME280;64571;47.512;19.054;2023-11-19T08:33:32;100739.31;;;3.75;83.51
75891;BME280;64571;47.512;19.054;2023-11-19T08:36:35;100773.06;;;3.59;84.61
75891;BME280;64571;47.512;19.054;2023-11-19T08:39:38;100778.28;;;3.72;84.36
75891;BME280;64571;47.512;19.054;2023-11-19T08:42:41;100776.34;;;3.73;84.46
75891;BME280;64571;47.512;19.054;2023-11-19T08:45:43;100742.25;;;3.86;83.14
75891;BME280;64571;47.512;19.054;2023-11-19T08:48:46;100757.78;;;3.92;83.16
75891;BME280;64571;47.512;19.054;2023-11-19T08:51:49;100752.06;;;3.81;84.16
75891;BME280;64571;47.512;19.054;2023-11-19T08:54:51;100751.31;;;3.98;83.78
75891;BME280;64571;47.512;19.054;2023-11-19T08:57:54;100773.72;;;3.78;84.22
75891;BME280;64571;47.512;19.054;2023-11-19T09:00:57;100732.19;;;3.63;84.39
75891;BME280;64571;47.512;19.054;2023-11-19T09:03:59;100733.44;;;3.84;83.48
75891;BME280;64571;47.512;19.054;2023-11-19T09:07:03;100759.69;;;3.91;82.81
75891;BME280;64571;47.512;19.054;2023-11-19T09:10:05;100780.44;;;4.11;82.88
75891;BME280;64571;47.512;19.054;2023-11-19T09:13:11;100757.72;;;4.03;82.42
75891;BME280;64571;47.512;19.054;2023-11-19T09:16:13;100758.44;;;4.27;81.99
75891;BME280;64571;47.512;19.054;2023-11-19T09:19:16;100773.09;;;4.16;81.23
75891;BME280;64571;47.512;19.054;2023-11-19T09:22:19;100783.22;;;3.99;82.25
75891;BME280;64571;47.512;19.054;2023-11-19T09:25:22;100778.16;;;4.07;81.76
75891;BME280;64571;47.512;19.054;2023-11-19T09:28:24;100765.75;;;4.22;80.96
75891;BME280;64571;47.512;19.054;2023-11-19T09:31:27;100777.91;;;4.09;81.31
75891;BME280;64571;47.512;19.054;2023-11-19T09:34:29;100760.53;;;4.20;80.47
75891;BME280;64571;47.512;19.054;2023-11-19T09:37:32;100773.63;;;4.30;80.09
75891;BME280;64571;47.512;19.054;2023-11-19T09:40:35;100761.19;;;4.27;79.98
75891;BME280;64571;47.512;19.054;2023-11-19T09:43:39;100741.84;;;4.22;79.61
75891;BME280;64571;47.512;19.054;2023-11-19T09:46:42;100761.69;;;4.24;80.04
75891;BME280;64571;47.512;19.054;2023-11-19T09:49:44;100749.78;;;4.36;80.07
75891;BME280;64571;47.512;19.054;2023-11-19T09:52:47;100739.53;;;4.31;79.88
75891;BME280;64571;47.512;19.054;2023-11-19T09:55:50;100736.03;;;4.36;80.33
75891;BME280;64571;47.512;19.054;2023-11-19T09:58:53;100734.84;;;4.31;80.14
75891;BME280;64571;47.512;19.054;2023-11-19T10:01:56;100705.09;;;4.28;80.49
75891;BME280;64571;47.512;19.054;2023-11-19T10:05:01;100694.59;;;4.25;80.17
75891;BME280;64571;47.512;19.054;2023-11-19T10:08:06;100723.03;;;4.48;80.52
75891;BME280;64571;47.512;19.054;2023-11-19T10:11:10;100706.94;;;4.40;79.92
75891;BME280;64571;47.512;19.054;2023-11-19T10:14:15;100703.84;;;4.53;79.63
75891;BME280;64571;47.512;19.054;2023-11-19T10:17:19;100684.66;;;4.58;79.56
75891;BME280;64571;47.512;19.054;2023-11-19T10:20:22;100665.31;;;4.53;79.02
75891;BME280;64571;47.512;19.054;2023-11-19T10:23:25;100691.41;;;4.67;79.56
75891;BME280;64571;47.512;19.054;2023-11-19T10:26:27;100685.50;;;4.58;79.90
75891;BME280;64571;47.512;19.054;2023-11-19T10:29:31;100661.25;;;4.55;80.18
75891;BME280;64571;47.512;19.054;2023-11-19T10:32:33;100682.66;;;4.70;79.58
75891;BME280;64571;47.512;19.054;2023-11-19T10:35:50;100665.22;;;4.65;79.61
75891;BME280;64571;47.512;19.054;2023-11-19T10:38:59;100694.84;;;4.74;79.25
75891;BME280;64571;47.512;19.054;2023-11-19T10:42:22;100697.19;;;4.66;79.61
75891;BME280;64571;47.512;19.054;2023-11-19T10:45:24;100683.31;;;4.77;79.90
75891;BME280;64571;47.512;19.054;2023-11-19T10:48:27;100687.47;;;4.80;80.02
75891;BME280;64571;47.512;19.054;2023-11-19T10:51:31;100679.72;;;4.77;79.97
75891;BME280;64571;47.512;19.054;2023-11-19T10:54:34;100678.94;;;4.81;79.55
75891;BME280;64571;47.512;19.054;2023-11-19T10:57:38;100671.63;;;4.87;79.83
75891;BME280;64571;47.512;19.054;2023-11-19T11:00:48;100656.91;;;4.81;79.95
75891;BME280;64571;47.512;19.054;2023-11-19T11:03:53;100653.09;;;4.82;80.04
75891;BME280;64571;47.512;19.054;2023-11-19T11:07:00;100652.00;;;4.83;79.80
75891;BME280;64571;47.512;19.054;2023-11-19T11:10:05;100624.53;;;4.89;79.86
75891;BME280;64571;47.512;19.054;2023-11-19T11:13:11;100627.37;;;4.94;79.38
75891;BME280;64571;47.512;19.054;2023-11-19T11:16:18;100625.69;;;4.93;79.85
75891;BME280;64571;47.512;19.054;2023-11-19T11:19:21;100595.47;;;4.76;80.29
75891;BME280;64571;47.512;19.054;2023-11-19T11:22:27;100617.78;;;4.96;79.92
75891;BME280;64571;47.512;19.054;2023-11-19T11:38:44;100619.31;;;4.87;81.89
75891;BME280;64571;47.512;19.054;2023-11-19T11:45:40;100605.34;;;4.94;81.49
75891;BME280;64571;47.512;19.054;2023-11-19T11:48:47;100604.50;;;4.93;82.00
75891;BME280;64571;47.512;19.054;2023-11-19T11:51:57;100590.63;;;5.05;82.05
75891;BME280;64571;47.512;19.054;2023-11-19T11:55:06;100585.41;;;5.08;81.93
75891;BME280;64571;47.512;19.054;2023-11-19T11:58:12;100582.47;;;5.15;81.68
75891;BME280;64571;47.512;19.054;2023-11-19T12:01:16;100592.59;;;5.10;81.64
75891;BME280;64571;47.512;19.054;2023-11-19T12:04:26;100589.06;;;5.14;81.67
75891;BME280;64571;47.512;19.054;2023-11-19T12:07:29;100548.00;;;5.13;81.50
75891;BME280;64571;47.512;19.054;2023-11-19T12:10:36;100540.06;;;4.94;82.00
75891;BME280;64571;47.512;19.054;2023-11-19T12:13:46;100541.28;;;5.03;82.16
75891;BME280;64571;47.512;19.054;2023-11-19T12:16:50;100543.03;;;4.88;83.43
75891;BME280;64571;47.512;19.054;2023-11-19T12:19:53;100548.53;;;5.10;83.30
75891;BME280;64571;47.512;19.054;2023-11-19T16:06:48;100411.78;;;4.98;92.14
75891;BME280;64571;47.512;19.054;2023-11-19T16:09:50;100408.25;;;5.03;92.19
75891;BME280;64571;47.512;19.054;2023-11-19T16:12:53;100386.69;;;4.95;92.77
75891;BME280;64571;47.512;19.054;2023-11-19T16:15:56;100396.34;;;4.97;92.34
75891;BME280;64571;47.512;19.054;2023-11-19T16:18:58;100399.13;;;4.97;93.08
75891;BME280;64571;47.512;19.054;2023-11-19T16:22:01;100398.41;;;5.12;92.98
75891;BME280;64571;47.512;19.054;2023-11-19T16:25:12;100387.09;;;5.08;92.68
75891;BME280;64571;47.512;19.054;2023-11-19T16:28:17;100414.13;;;5.12;93.00
75891;BME280;64571;47.512;19.054;2023-11-19T16:31:22;100419.31;;;5.08;92.83
75891;BME280;64571;47.512;19.054;2023-11-19T16:34:25;100393.34;;;4.99;92.43
75891;BME280;64571;47.512;19.054;2023-11-19T16:37:27;100368.00;;;4.97;92.26
75891;BME280;64571;47.512;19.054;2023-11-19T16:40:30;100384.62;;;5.12;92.43
75891;BME280;64571;47.512;19.054;2023-11-19T16:43:33;100390.25;;;5.22;93.04
75891;BME280;64571;47.512;19.054;2023-11-19T16:46:35;100390.28;;;5.27;92.21
75891;BME280;64571;47.512;19.054;2023-11-19T16:49:39;100393.84;;;5.23;91.62
75891;BME280;64571;47.512;19.054;2023-11-19T16:52:42;100395.16;;;5.15;91.98
75891;BME280;64571;47.512;19.054;2023-11-19T16:55:44;100400.66;;;5.15;92.47
75891;BME280;64571;47.512;19.054;2023-11-19T16:58:47;100395.16;;;5.15;91.55
75891;BME280;64571;47.512;19.054;2023-11-19T17:01:50;100375.00;;;5.10;91.54
75891;BME280;64571;47.512;19.054;2023-11-19T17:04:53;100409.28;;;5.24;90.67
75891;BME280;64571;47.512;19.054;2023-11-19T17:07:55;100387.25;;;5.29;90.48
75891;BME280;64571;47.512;19.054;2023-11-19T17:11:01;100414.38;;;5.42;90.24
75891;BME280;64571;47.512;19.054;2023-11-19T17:14:05;100390.56;;;5.31;90.25
75891;BME280;64571;47.512;19.054;2023-11-19T17:17:08;100389.84;;;5.41;90.04
75891;BME280;64571;47.512;19.054;2023-11-19T17:20:11;100397.38;;;5.55;90.21
75891;BME280;64571;47.512;19.054;2023-11-19T17:23:15;100396.31;;;5.62;89.63
75891;BME280;64571;47.512;19.054;2023-11-19T17:26:18;100375.56;;;5.49;88.47
75891;BME280;64571;47.512;19.054;2023-11-19T17:29:20;100387.53;;;5.65;88.99
75891;BME280;64571;47.512;19.054;2023-11-19T17:32:25;100380.34;;;5.58;88.68
75891;BME280;64571;47.512;19.054;2023-11-19T17:35:27;100356.53;;;5.47;89.35
75891;BME280;64571;47.512;19.054;2023-11-19T17:38:31;100385.56;;;5.60;89.36
75891;BME280;64571;47.512;19.054;2023-11-19T17:41:34;100383.97;;;5.69;89.00
75891;BME280;64571;47.512;19.054;2023-11-19T17:44:36;100378.75;;;5.73;89.15
75891;BME280;64571;47.512;19.054;2023-11-19T17:47:39;100379.53;;;5.63;88.37
75891;BME280;64571;47.512;19.054;2023-11-19T17:50:42;100351.63;;;5.54;89.03
75891;BME280;64571;47.512;19.054;2023-11-19T17:53:45;100343.13;;;5.61;89.13
75891;BME280;64571;47.512;19.054;2023-11-19T17:56:48;100307.00;;;5.63;89.87
75891;BME280;64571;47.512;19.054;2023-11-19T17:59:51;100318.63;;;5.70;89.64
75891;BME280;64571;47.512;19.054;2023-11-19T18:02:54;100316.66;;;5.60;90.11
75891;BME280;64571;47.512;19.054;2023-11-19T18:05:57;100290.47;;;5.63;90.86
75891;BME280;64571;47.512;19.054;2023-11-19T18:09:00;100296.84;;;5.63;91.80
75891;BME280;64571;47.512;19.054;2023-11-19T18:12:05;100316.94;;;5.58;91.19
75891;BME280;64571;47.512;19.054;2023-11-19T18:15:17;100323.00;;;5.61;91.05
75891;BME280;64571;47.512;19.054;2023-11-19T18:18:20;100310.00;;;5.56;91.80
75891;BME280;64571;47.512;19.054;2023-11-19T18:21:23;100305.34;;;5.62;90.89
75891;BME280;64571;47.512;19.054;2023-11-19T18:24:26;100303.41;;;5.62;91.01
75891;BME280;64571;47.512;19.054;2023-11-19T18:27:29;100299.31;;;5.65;90.90
75891;BME280;64571;47.512;19.054;2023-11-19T18:30:32;100310.53;;;5.53;90.86
75891;BME280;64571;47.512;19.054;2023-11-19T18:33:34;100333.22;;;5.65;91.03
75891;BME280;64571;47.512;19.054;2023-11-19T18:36:38;100322.72;;;5.62;91.23
75891;BME280;64571;47.512;19.054;2023-11-19T18:39:40;100337.09;;;5.69;90.96
75891;BME280;64571;47.512;19.054;2023-11-19T18:42:44;100327.50;;;5.77;90.88
75891;BME280;64571;47.512;19.054;2023-11-19T18:45:46;100299.62;;;5.73;90.98
75891;BME280;64571;47.512;19.054;2023-11-19T18:48:49;100315.03;;;5.69;90.50
75891;BME280;64571;47.512;19.054;2023-11-19T18:51:53;100332.78;;;5.89;89.72
75891;BME280;64571;47.512;19.054;2023-11-19T18:54:56;100335.03;;;5.92;90.04
75891;BME280;64571;47.512;19.054;2023-11-19T18:57:59;100329.78;;;5.90;89.07
75891;BME280;64571;47.512;19.054;2023-11-19T19:01:02;100318.22;;;5.98;89.09
75891;BME280;64571;47.512;19.054;2023-11-19T19:04:04;100322.31;;;5.91;89.89
75891;BME280;64571;47.512;19.054;2023-11-19T19:07:12;100316.84;;;5.96;90.01
75891;BME280;64571;47.512;19.054;2023-11-19T19:10:14;100310.16;;;5.87;90.69
75891;BME280;64571;47.512;19.054;2023-11-19T19:13:17;100299.72;;;5.94;90.61
75891;BME280;64571;47.512;19.054;2023-11-19T19:16:20;100310.75;;;5.94;91.20
75891;BME280;64571;47.512;19.054;2023-11-19T19:19:23;100283.12;;;5.89;91.25
75891;BME280;64571;47.512;19.054;2023-11-19T19:22:26;100271.34;;;5.98;91.03
75891;BME280;64571;47.512;19.054;2023-11-19T19:25:28;100264.47;;;6.01;91.11
75891;BME280;64571;47.512;19.054;2023-11-19T19:28:31;100241.22;;;5.87;90.11
75891;BME280;64571;47.512;19.054;2023-11-19T19:31:34;100256.72;;;5.98;90.38
75891;BME280;64571;47.512;19.054;2023-11-19T19:34:36;100232.66;;;5.88;89.82
75891;BME280;64571;47.512;19.054;2023-11-19T19:37:39;100252.56;;;5.90;89.63
75891;BME280;64571;47.512;19.054;2023-11-19T19:40:41;100243.38;;;5.79;90.08
75891;BME280;64571;47.512;19.054;2023-11-19T19:43:44;100253.38;;;5.86;90.99
75891;BME280;64571;47.512;19.054;2023-11-19T19:46:46;100253.38;;;5.86;91.81
75891;BME280;64571;47.512;19.054;2023-11-19T19:49:49;100245.91;;;5.81;92.17
75891;BME280;64571;47.512;19.054;2023-11-19T19:52:52;100241.22;;;5.81;92.22
75891;BME280;64571;47.512;19.054;2023-11-19T19:55:56;100241.47;;;5.85;91.97
75891;BME280;64571;47.512;19.054;2023-11-19T19:58:59;100221.03;;;5.76;92.09
75891;BME280;64571;47.512;19.054;2023-11-19T20:02:01;100238.44;;;5.81;92.22